Time;durP1;ratioP1;P1;durP2;ratioP2;P2;SDS_P1;SDS_P2;PMS_P1;PMS_P2;Temp;Humidity;BMP_temperature;BMP_pressure;BME280_temperature;BME280_humidity;BME280_pressure;Samples;Min_cycle;Max_cycle;Signal;HPM_P1;HPM_P2
2023/10/22 00:02:13;;;;;;;4.88;1.90;;;;;;;;;;4911564;29;20048;-68
2023/10/22 00:04:41;;;;;;;4.22;1.60;;;;;;;;;;4901644;29;20496;-67
2023/10/22 00:07:07;;;;;;;4.97;2.20;;;;;;;;;;4894122;29;20115;-68
2023/10/22 00:09:36;;;;;;;8.13;2.70;;;;;;;;;;4899610;29;20060;-66
2023/10/22 00:12:03;;;;;;;6.43;1.92;;;;;;;;;;4906186;29;20048;-67
2023/10/22 00:14:31;;;;;;;5.88;2.10;;;;;;;;;;4909142;29;20115;-68
2023/10/22 00:16:57;;;;;;;5.38;1.90;;;;;;;;;;4907731;29;20059;-66
2023/10/22 00:19:24;;;;;;;3.60;1.85;;;;;;;;;;4877796;29;20056;-67
2023/10/22 00:21:51;;;;;;;8.32;2.15;;;;;;;;;;4909842;29;20048;-66
2023/10/22 00:24:17;;;;;;;5.25;2.55;;;;;;;;;;4909597;29;20044;-67
2023/10/22 00:26:44;;;;;;;7.75;2.25;;;;;;;;;;4888265;29;20063;-66
2023/10/22 00:29:10;;;;;;;5.28;2.40;;;;;;;;;;4910303;29;20048;-67
2023/10/22 00:31:38;;;;;;;6.13;2.08;;;;;;;;;;4908194;29;20598;-69
2023/10/22 00:34:06;;;;;;;8.27;2.20;;;;;;;;;;4908994;29;20060;-67
2023/10/22 00:36:32;;;;;;;6.03;2.00;;;;;;;;;;4890137;29;20172;-66
2023/10/22 00:38:58;;;;;;;4.35;2.10;;;;;;;;;;4909596;29;20055;-68
2023/10/22 00:41:24;;;;;;;6.05;2.08;;;;;;;;;;4907802;29;20062;-66
2023/10/22 00:43:50;;;;;;;6.65;2.70;;;;;;;;;;4909114;29;20056;-66
2023/10/22 00:46:21;;;;;;;6.97;2.13;;;;;;;;;;4915265;29;20048;-66
2023/10/22 00:48:49;;;;;;;5.40;2.10;;;;;;;;;;4898405;29;20061;-67
2023/10/22 00:51:15;;;;;;;9.45;2.40;;;;;;;;;;4905468;29;20048;-67
2023/10/22 00:53:43;;;;;;;3.00;1.60;;;;;;;;;;4916350;29;20342;-68
2023/10/22 00:56:09;;;;;;;4.80;2.17;;;;;;;;;;4895610;29;20060;-67
2023/10/22 00:58:38;;;;;;;8.88;2.40;;;;;;;;;;4905314;29;20067;-67
2023/10/22 01:01:09;;;;;;;7.43;2.08;;;;;;;;;;4905071;29;20056;-67
2023/10/22 01:03:36;;;;;;;6.13;2.03;;;;;;;;;;4915685;29;20103;-66
2023/10/22 01:06:07;;;;;;;6.80;2.13;;;;;;;;;;4916987;29;20457;-67
2023/10/22 01:08:35;;;;;;;5.00;2.30;;;;;;;;;;4910455;29;20860;-68
2023/10/22 01:11:11;;;;;;;4.47;1.98;;;;;;;;;;4914809;29;20060;-67
2023/10/22 01:13:39;;;;;;;13.77;2.40;;;;;;;;;;4910626;29;20036;-66
2023/10/22 01:16:09;;;;;;;4.43;1.90;;;;;;;;;;4913864;29;20062;-67
2023/10/22 01:18:36;;;;;;;6.78;2.03;;;;;;;;;;4908254;29;20056;-68
2023/10/22 01:21:06;;;;;;;7.80;2.22;;;;;;;;;;4914328;29;20111;-66
2023/10/22 01:23:38;;;;;;;5.63;2.03;;;;;;;;;;4917703;29;20052;-67
2023/10/22 01:26:08;;;;;;;4.28;1.80;;;;;;;;;;4918598;29;20067;-66
2023/10/22 01:28:35;;;;;;;5.13;2.10;;;;;;;;;;4909492;29;20492;-67
2023/10/22 01:31:04;;;;;;;8.35;2.17;;;;;;;;;;4901172;29;20130;-67
2023/10/22 01:33:31;;;;;;;6.60;1.88;;;;;;;;;;4915925;29;20083;-65
2023/10/22 01:35:57;;;;;;;3.95;1.40;;;;;;;;;;4913762;29;20136;-66
2023/10/22 01:38:23;;;;;;;5.80;1.70;;;;;;;;;;4915376;29;20050;-66
2023/10/22 01:40:49;;;;;;;6.00;1.52;;;;;;;;;;4911082;29;20139;-65
2023/10/22 01:43:15;;;;;;;3.75;1.40;;;;;;;;;;4911854;29;20075;-67
2023/10/22 01:45:41;;;;;;;4.90;1.33;;;;;;;;;;4915478;29;20059;-64
2023/10/22 01:48:08;;;;;;;7.07;1.35;;;;;;;;;;4895498;29;20040;-67
2023/10/22 01:50:33;;;;;;;4.88;1.30;;;;;;;;;;4911546;29;20610;-66
2023/10/22 01:53:01;;;;;;;5.63;1.55;;;;;;;;;;4913954;29;20051;-67
2023/10/22 01:55:27;;;;;;;4.72;1.85;;;;;;;;;;4913777;29;20054;-67
2023/10/22 01:57:53;;;;;;;3.53;1.42;;;;;;;;;;4913467;29;20060;-66
2023/10/22 02:00:19;;;;;;;5.03;1.50;;;;;;;;;;4914844;29;20059;-66
2023/10/22 02:02:45;;;;;;;4.55;1.20;;;;;;;;;;4899250;29;20130;-67
2023/10/22 02:05:11;;;;;;;6.47;1.50;;;;;;;;;;4915568;29;20548;-69
2023/10/22 02:07:39;;;;;;;4.88;1.35;;;;;;;;;;4915465;29;20060;-67
2023/10/22 02:10:08;;;;;;;5.10;1.20;;;;;;;;;;4913799;29;20520;-69
2023/10/22 02:12:35;;;;;;;4.00;1.40;;;;;;;;;;4900726;29;20047;-66
2023/10/22 02:15:01;;;;;;;3.40;1.13;;;;;;;;;;4909494;29;20556;-67
2023/10/22 02:17:27;;;;;;;4.70;1.40;;;;;;;;;;4893818;29;20140;-66
2023/10/22 02:19:53;;;;;;;5.13;1.38;;;;;;;;;;4911208;29;20562;-67
2023/10/22 02:22:19;;;;;;;4.28;1.33;;;;;;;;;;4907570;29;20158;-66
2023/10/22 02:24:46;;;;;;;2.72;1.40;;;;;;;;;;4910860;29;20048;-67
2023/10/22 02:27:12;;;;;;;3.95;1.23;;;;;;;;;;4912725;29;20508;-66
2023/10/22 02:29:38;;;;;;;4.05;1.40;;;;;;;;;;4908470;29;20071;-65
2023/10/22 02:32:05;;;;;;;2.92;1.30;;;;;;;;;;4910967;29;20048;-68
2023/10/22 02:34:31;;;;;;;2.35;1.15;;;;;;;;;;4910430;29;20070;-65
2023/10/22 02:36:57;;;;;;;4.05;1.40;;;;;;;;;;4912321;29;20182;-67
2023/10/22 02:39:23;;;;;;;2.55;1.00;;;;;;;;;;4911474;29;20082;-66
2023/10/22 02:41:49;;;;;;;1.98;1.00;;;;;;;;;;4922477;29;20052;-67
2023/10/22 02:44:15;;;;;;;3.47;1.10;;;;;;;;;;4917799;29;20074;-66
2023/10/22 02:46:41;;;;;;;3.28;1.02;;;;;;;;;;4908566;29;20052;-64
2023/10/22 02:49:07;;;;;;;2.28;0.90;;;;;;;;;;4909909;29;20055;-66
2023/10/22 02:51:33;;;;;;;2.70;1.08;;;;;;;;;;4907095;29;20068;-65
2023/10/22 02:53:59;;;;;;;2.95;1.10;;;;;;;;;;4913950;29;20339;-65
2023/10/22 02:56:26;;;;;;;2.40;0.85;;;;;;;;;;4917922;29;20048;-66
2023/10/22 02:58:51;;;;;;;1.85;1.30;;;;;;;;;;4914425;29;20108;-67
2023/10/22 03:01:17;;;;;;;3.08;1.13;;;;;;;;;;4913280;29;20092;-65
2023/10/22 03:03:44;;;;;;;2.22;1.02;;;;;;;;;;4908913;29;20051;-65
2023/10/22 03:06:11;;;;;;;2.38;1.00;;;;;;;;;;4908462;29;20036;-66
2023/10/22 03:08:39;;;;;;;2.63;0.90;;;;;;;;;;4913686;29;20048;-66
2023/10/22 03:11:06;;;;;;;3.85;1.25;;;;;;;;;;4913641;29;20330;-67
2023/10/22 03:13:32;;;;;;;3.88;1.10;;;;;;;;;;4909358;29;20466;-66
2023/10/22 03:16:11;;;;;;;4.05;1.13;;;;;;;;;;4917080;29;20345;-67
2023/10/22 03:18:40;;;;;;;3.63;1.10;;;;;;;;;;4909059;29;20048;-66
2023/10/22 03:21:14;;;;;;;3.42;1.10;;;;;;;;;;4910405;29;20068;-66
2023/10/22 03:23:43;;;;;;;1.98;0.80;;;;;;;;;;4908745;29;20060;-67
2023/10/22 03:26:17;;;;;;;2.17;1.00;;;;;;;;;;4909408;29;20048;-67
2023/10/22 03:28:44;;;;;;;6.28;1.40;;;;;;;;;;4912494;29;20706;-66
2023/10/22 03:31:11;;;;;;;2.70;1.13;;;;;;;;;;4915219;29;20083;-66
2023/10/22 03:33:36;;;;;;;2.63;1.13;;;;;;;;;;4912223;29;20107;-64
2023/10/22 03:36:09;;;;;;;3.72;1.40;;;;;;;;;;4907775;29;20080;-66
2023/10/22 03:38:35;;;;;;;3.30;1.00;;;;;;;;;;4909766;29;20052;-65
2023/10/22 03:41:03;;;;;;;3.58;1.50;;;;;;;;;;4904999;29;22083;-65
2023/10/22 03:43:30;;;;;;;3.10;1.10;;;;;;;;;;4910559;29;20048;-69
2023/10/22 03:46:00;;;;;;;2.67;0.98;;;;;;;;;;4909306;29;20552;-66
2023/10/22 03:48:27;;;;;;;2.83;1.08;;;;;;;;;;4910031;29;20056;-65
2023/10/22 03:50:54;;;;;;;2.78;1.25;;;;;;;;;;4910167;29;20052;-65
2023/10/22 03:53:21;;;;;;;3.75;1.10;;;;;;;;;;4909378;29;20076;-64
2023/10/22 03:55:48;;;;;;;1.17;0.73;;;;;;;;;;4911199;29;20108;-67
2023/10/22 03:58:14;;;;;;;2.75;1.10;;;;;;;;;;4908712;29;20135;-65
2023/10/22 04:00:40;;;;;;;5.35;1.20;;;;;;;;;;4910645;29;20060;-66
2023/10/22 04:03:06;;;;;;;2.13;0.98;;;;;;;;;;4910867;29;20079;-66
2023/10/22 04:05:33;;;;;;;3.38;1.13;;;;;;;;;;4912035;29;20048;-65
2023/10/22 04:07:59;;;;;;;5.80;1.30;;;;;;;;;;4905619;29;20062;-65
2023/10/22 04:10:25;;;;;;;5.90;1.30;;;;;;;;;;4911855;29;20040;-65
2023/10/22 04:12:51;;;;;;;3.00;1.23;;;;;;;;;;4909050;29;20044;-68
2023/10/22 04:15:18;;;;;;;3.45;1.30;;;;;;;;;;4906574;29;20255;-65
2023/10/22 04:17:47;;;;;;;4.13;1.25;;;;;;;;;;4907936;29;20036;-66
2023/10/22 04:20:15;;;;;;;3.25;1.02;;;;;;;;;;4909030;29;20063;-66
2023/10/22 04:22:42;;;;;;;4.22;1.00;;;;;;;;;;4892862;29;20052;-67
2023/10/22 04:25:09;;;;;;;2.25;0.93;;;;;;;;;;4908737;29;20060;-65
2023/10/22 04:27:36;;;;;;;3.83;1.00;;;;;;;;;;4910987;29;20048;-66
2023/10/22 04:30:04;;;;;;;3.33;0.90;;;;;;;;;;4906864;29;20500;-66
2023/10/22 04:32:33;;;;;;;4.10;1.10;;;;;;;;;;4909475;29;20055;-66
2023/10/22 04:34:59;;;;;;;4.18;1.10;;;;;;;;;;4890840;29;20059;-66
2023/10/22 04:37:27;;;;;;;2.40;1.00;;;;;;;;;;4907439;29;20056;-68
2023/10/22 04:39:56;;;;;;;2.35;1.08;;;;;;;;;;4908850;29;20060;-65
2023/10/22 04:42:22;;;;;;;4.28;0.90;;;;;;;;;;4905108;29;20493;-67
2023/10/22 04:44:48;;;;;;;3.15;1.15;;;;;;;;;;4909497;29;20060;-66
2023/10/22 04:47:14;;;;;;;1.58;0.80;;;;;;;;;;4906421;29;20075;-66
2023/10/22 04:49:40;;;;;;;2.38;1.00;;;;;;;;;;4909565;29;20073;-65
2023/10/22 04:52:10;;;;;;;3.00;0.95;;;;;;;;;;4906701;29;20048;-67
2023/10/22 04:54:39;;;;;;;3.80;1.05;;;;;;;;;;4908004;29;20052;-65
2023/10/22 04:57:05;;;;;;;2.53;0.90;;;;;;;;;;4910040;29;20676;-66
2023/10/22 04:59:32;;;;;;;3.33;1.10;;;;;;;;;;4910152;29;20062;-66
2023/10/22 05:01:58;;;;;;;3.10;0.95;;;;;;;;;;4910270;29;20374;-66
2023/10/22 05:04:24;;;;;;;5.35;1.10;;;;;;;;;;4891102;29;20055;-66
2023/10/22 05:06:53;;;;;;;3.05;1.08;;;;;;;;;;4909448;29;20138;-66
2023/10/22 05:09:19;;;;;;;2.58;0.93;;;;;;;;;;4906437;29;20056;-66
2023/10/22 05:11:45;;;;;;;2.17;0.80;;;;;;;;;;4908950;29;20055;-68
2023/10/22 05:14:11;;;;;;;3.13;1.00;;;;;;;;;;4909591;29;20048;-66
2023/10/22 05:16:37;;;;;;;8.50;1.27;;;;;;;;;;4906912;29;20130;-65
2023/10/22 05:19:06;;;;;;;2.75;1.02;;;;;;;;;;4908831;29;20080;-66
2023/10/22 05:21:31;;;;;;;3.55;1.05;;;;;;;;;;4909180;29;20362;-65
2023/10/22 05:23:58;;;;;;;2.78;0.93;;;;;;;;;;4905426;29;20142;-65
2023/10/22 05:26:23;;;;;;;3.05;1.10;;;;;;;;;;4909474;29;20060;-66
2023/10/22 05:28:53;;;;;;;1.73;1.00;;;;;;;;;;4907221;29;20056;-66
2023/10/22 05:31:20;;;;;;;4.47;1.17;;;;;;;;;;4907733;29;20080;-66
2023/10/22 05:33:46;;;;;;;2.47;0.90;;;;;;;;;;4908051;29;20052;-67
2023/10/22 05:36:21;;;;;;;4.40;0.93;;;;;;;;;;4909308;29;20059;-67
2023/10/22 05:38:48;;;;;;;3.25;1.20;;;;;;;;;;4909233;29;20060;-66
2023/10/22 05:41:25;;;;;;;3.17;1.10;;;;;;;;;;4906459;29;20086;-67
2023/10/22 05:43:56;;;;;;;5.20;1.00;;;;;;;;;;4907799;29;20044;-66
2023/10/22 05:46:29;;;;;;;2.33;1.00;;;;;;;;;;4906984;29;20052;-67
2023/10/22 05:48:55;;;;;;;3.80;0.93;;;;;;;;;;4910305;29;20060;-67
2023/10/22 05:51:21;;;;;;;2.80;1.00;;;;;;;;;;4914035;29;20048;-65
2023/10/22 05:53:50;;;;;;;2.85;0.90;;;;;;;;;;4907492;29;20454;-67
2023/10/22 05:56:16;;;;;;;1.83;0.88;;;;;;;;;;4912764;29;20565;-65
2023/10/22 05:58:43;;;;;;;5.85;1.13;;;;;;;;;;4912057;29;20048;-66
2023/10/22 06:01:09;;;;;;;4.05;1.25;;;;;;;;;;4911024;29;20429;-67
2023/10/22 06:03:36;;;;;;;3.17;1.38;;;;;;;;;;4908423;29;20516;-67
2023/10/22 06:06:03;;;;;;;4.78;1.40;;;;;;;;;;4910978;29;20059;-67
2023/10/22 06:08:29;;;;;;;3.45;1.10;;;;;;;;;;4911918;29;20522;-66
2023/10/22 06:10:55;;;;;;;4.80;1.30;;;;;;;;;;4914817;29;20136;-67
2023/10/22 06:13:21;;;;;;;6.72;1.60;;;;;;;;;;4913651;29;20052;-66
2023/10/22 06:15:47;;;;;;;3.22;1.10;;;;;;;;;;4915227;29;20139;-66
2023/10/22 06:18:41;;;;;;;4.70;1.15;;;;;;;;;;4910428;29;20052;-66
2023/10/22 06:21:15;;;;;;;6.60;1.30;;;;;;;;;;4911464;29;20051;-67
2023/10/22 06:23:42;;;;;;;2.40;1.00;;;;;;;;;;4916521;29;20452;-65
2023/10/22 06:26:11;;;;;;;3.05;1.17;;;;;;;;;;4919137;29;20070;-67
2023/10/22 06:29:18;;;;;;;2.30;1.13;;;;;;;;;;4901634;29;20400;-67
2023/10/22 06:33:03;;;;;;;3.30;1.20;;;;;;;;;;4911741;29;20180;-67
2023/10/22 06:36:55;;;;;;;2.88;1.13;;;;;;;;;;4909064;29;20080;-66
2023/10/22 06:40:36;;;;;;;3.50;0.85;;;;;;;;;;4918921;29;20052;-66
2023/10/22 06:44:16;;;;;;;3.70;1.10;;;;;;;;;;4907399;29;20514;-65
2023/10/22 06:47:56;;;;;;;4.95;1.38;;;;;;;;;;4908331;29;20079;-65
2023/10/22 06:51:38;;;;;;;4.80;1.25;;;;;;;;;;4916257;29;20448;-66
2023/10/22 06:55:19;;;;;;;2.70;0.88;;;;;;;;;;4907980;29;20059;-67
2023/10/22 06:58:59;;;;;;;3.22;1.10;;;;;;;;;;4907955;29;20059;-66
2023/10/22 07:02:39;;;;;;;3.67;1.05;;;;;;;;;;4920273;29;20060;-68
2023/10/22 07:06:20;;;;;;;5.55;1.20;;;;;;;;;;4909415;29;20286;-68
2023/10/22 07:10:01;;;;;;;2.70;1.20;;;;;;;;;;4909182;29;20060;-68
2023/10/22 07:13:41;;;;;;;2.75;1.27;;;;;;;;;;4905372;29;20138;-68
2023/10/22 07:17:22;;;;;;;4.68;1.40;;;;;;;;;;4910688;29;20390;-69
2023/10/22 07:21:02;;;;;;;2.33;1.05;;;;;;;;;;4907533;29;20392;-67
2023/10/22 07:24:43;;;;;;;6.38;1.17;;;;;;;;;;4913037;29;20127;-69
2023/10/22 07:28:24;;;;;;;8.40;1.35;;;;;;;;;;4912689;29;20052;-66
2023/10/22 07:32:05;;;;;;;6.93;2.30;;;;;;;;;;4908415;29;20127;-68
2023/10/22 07:35:45;;;;;;;2.53;1.20;;;;;;;;;;4909859;29;20100;-67
2023/10/22 07:39:28;;;;;;;7.68;1.45;;;;;;;;;;4914680;29;20056;-68
2023/10/22 07:43:08;;;;;;;4.97;1.30;;;;;;;;;;4908029;29;20119;-67
2023/10/22 07:46:48;;;;;;;8.55;2.30;;;;;;;;;;4908566;29;20576;-68
2023/10/22 07:50:32;;;;;;;5.47;1.50;;;;;;;;;;4914922;29;20143;-68
2023/10/22 07:54:12;;;;;;;3.15;1.25;;;;;;;;;;4905151;29;20108;-67
2023/10/22 07:57:54;;;;;;;6.38;1.52;;;;;;;;;;4909410;29;20084;-66
2023/10/22 08:01:33;;;;;;;7.78;3.00;;;;;;;;;;4909373;29;20083;-67
2023/10/22 08:05:13;;;;;;;6.15;1.67;;;;;;;;;;4907719;29;20705;-68
2023/10/22 08:08:56;;;;;;;8.07;1.85;;;;;;;;;;4902294;29;20468;-69
2023/10/22 08:12:34;;;;;;;4.32;1.88;;;;;;;;;;4907007;29;20143;-68
2023/10/22 08:16:14;;;;;;;4.25;1.55;;;;;;;;;;4915261;29;20054;-68
2023/10/22 08:19:56;;;;;;;4.93;1.88;;;;;;;;;;4898679;29;20056;-68
2023/10/22 08:23:38;;;;;;;4.20;1.70;;;;;;;;;;4903208;29;20059;-70
2023/10/22 08:27:16;;;;;;;6.47;1.90;;;;;;;;;;4902881;29;20099;-69
2023/10/22 08:30:57;;;;;;;4.53;1.98;;;;;;;;;;4902794;29;20050;-69
2023/10/22 08:34:37;;;;;;;6.47;1.80;;;;;;;;;;4902899;29;20373;-69
2023/10/22 08:38:19;;;;;;;6.32;1.80;;;;;;;;;;4885649;29;20323;-66
2023/10/22 08:42:02;;;;;;;4.10;1.60;;;;;;;;;;4897144;29;20060;-68
2023/10/22 08:45:46;;;;;;;4.85;2.10;;;;;;;;;;4900896;29;20056;-67
2023/10/22 08:49:26;;;;;;;11.88;2.40;;;;;;;;;;4898698;29;20126;-67
2023/10/22 08:53:06;;;;;;;5.47;1.83;;;;;;;;;;4891391;29;20646;-71
2023/10/22 08:56:47;;;;;;;4.35;1.88;;;;;;;;;;4898764;29;20365;-67
2023/10/22 09:00:27;;;;;;;5.47;2.15;;;;;;;;;;4899572;29;20071;-65
2023/10/22 09:04:08;;;;;;;7.00;2.30;;;;;;;;;;4898446;29;20590;-67
2023/10/22 09:07:46;;;;;;;6.75;2.05;;;;;;;;;;4896024;29;20595;-66
2023/10/22 09:11:30;;;;;;;10.35;2.20;;;;;;;;;;4898332;29;20327;-67
2023/10/22 09:15:10;;;;;;;9.70;2.67;;;;;;;;;;4899211;29;20052;-66
2023/10/22 09:18:52;;;;;;;9.63;2.30;;;;;;;;;;4899232;29;20051;-66
2023/10/22 09:22:35;;;;;;;4.78;2.28;;;;;;;;;;4895263;29;20060;-67
2023/10/22 09:26:15;;;;;;;6.47;2.75;;;;;;;;;;4903226;29;20100;-67
2023/10/22 09:29:16;;;;;;;4.75;2.50;;;;;;;;;;4905346;29;20066;-67
2023/10/22 09:31:51;;;;;;;8.80;2.70;;;;;;;;;;4900107;29;20051;-69
2023/10/22 09:34:30;;;;;;;8.50;2.40;;;;;;;;;;4900961;29;20151;-65
2023/10/22 09:37:36;;;;;;;8.32;2.00;;;;;;;;;;4902775;29;20508;-68
2023/10/22 09:41:18;;;;;;;8.90;2.10;;;;;;;;;;4898934;29;20530;-64
2023/10/22 09:44:59;;;;;;;4.90;1.80;;;;;;;;;;4901659;29;20071;-72
2023/10/22 09:48:41;;;;;;;13.25;1.80;;;;;;;;;;4904034;29;20060;-68
2023/10/22 09:51:17;;;;;;;6.07;1.55;;;;;;;;;;4896775;29;20068;-68
2023/10/22 09:53:54;;;;;;;6.35;1.77;;;;;;;;;;4885562;29;20048;-67
2023/10/22 09:56:32;;;;;;;5.53;1.70;;;;;;;;;;4888993;29;20413;-66
2023/10/22 09:59:07;;;;;;;10.15;1.80;;;;;;;;;;4909219;29;20610;-67
2023/10/22 10:01:37;;;;;;;8.48;1.50;;;;;;;;;;4884614;29;20052;-72
2023/10/22 10:04:05;;;;;;;6.10;1.73;;;;;;;;;;4904108;29;20062;-66
2023/10/22 10:06:33;;;;;;;5.38;1.63;;;;;;;;;;4885231;29;20052;-67
2023/10/22 10:09:05;;;;;;;4.88;1.73;;;;;;;;;;4908072;29;20107;-68
2023/10/22 10:11:47;;;;;;;2.78;1.48;;;;;;;;;;4911429;29;20044;-69
2023/10/22 10:14:59;;;;;;;5.72;2.00;;;;;;;;;;4909225;29;20066;-65
2023/10/22 10:18:40;;;;;;;3.67;1.67;;;;;;;;;;4904299;29;20120;-67
2023/10/22 10:22:21;;;;;;;5.75;1.90;;;;;;;;;;4906980;29;20119;-67
2023/10/22 10:26:11;;;;;;;3.67;1.50;;;;;;;;;;4909914;29;20493;-66
2023/10/22 10:29:54;;;;;;;6.32;1.48;;;;;;;;;;4903352;29;20123;-68
2023/10/22 10:33:34;;;;;;;3.35;1.27;;;;;;;;;;4908407;29;20079;-65
2023/10/22 10:37:15;;;;;;;4.25;1.60;;;;;;;;;;4908411;29;20118;-67
2023/10/22 10:41:04;;;;;;;2.13;0.90;;;;;;;;;;4904349;29;20146;-67
2023/10/22 10:44:46;;;;;;;4.72;1.63;;;;;;;;;;4907214;29;20450;-66
2023/10/22 10:48:26;;;;;;;4.90;1.50;;;;;;;;;;4895114;29;20048;-65
2023/10/22 10:52:19;;;;;;;3.53;1.30;;;;;;;;;;4907217;29;20056;-68
2023/10/22 10:55:19;;;;;;;3.58;1.20;;;;;;;;;;4903402;29;20044;-66
2023/10/22 10:59:04;;;;;;;5.10;1.50;;;;;;;;;;4905722;29;20307;-71
2023/10/22 11:02:47;;;;;;;4.63;1.17;;;;;;;;;;4902290;29;20099;-67
2023/10/22 11:06:17;;;;;;;6.72;1.30;;;;;;;;;;4906904;29;20061;-66
2023/10/22 11:09:57;;;;;;;3.80;1.60;;;;;;;;;;4902488;29;20417;-65
2023/10/22 11:13:07;;;;;;;8.45;1.75;;;;;;;;;;4902343;29;20061;-67
2023/10/22 11:16:49;;;;;;;5.85;1.40;;;;;;;;;;4895664;29;20436;-67
2023/10/22 11:20:30;;;;;;;4.60;1.48;;;;;;;;;;4898891;29;20787;-68
2023/10/22 11:24:10;;;;;;;8.73;1.30;;;;;;;;;;4903448;29;20200;-69
2023/10/22 11:27:50;;;;;;;3.05;1.30;;;;;;;;;;4908820;29;20138;-68
2023/10/22 11:31:42;;;;;;;4.65;1.58;;;;;;;;;;4911996;29;20559;-67
2023/10/22 11:35:27;;;;;;;5.28;1.58;;;;;;;;;;4906255;29;20243;-72
2023/10/22 11:39:08;;;;;;;3.58;1.40;;;;;;;;;;4908438;29;20056;-67
2023/10/22 11:42:53;;;;;;;4.40;1.27;;;;;;;;;;4906570;29;20056;-70
2023/10/22 11:46:33;;;;;;;6.20;1.60;;;;;;;;;;4910254;29;20048;-67
2023/10/22 11:50:14;;;;;;;10.50;1.40;;;;;;;;;;4907544;29;20059;-67
2023/10/22 11:54:00;;;;;;;3.38;1.15;;;;;;;;;;4908157;29;20461;-69
2023/10/22 11:57:41;;;;;;;4.55;1.17;;;;;;;;;;4908105;29;20079;-66
2023/10/22 12:01:22;;;;;;;4.60;1.83;;;;;;;;;;4913375;29;20473;-67
2023/10/22 12:05:01;;;;;;;4.57;1.50;;;;;;;;;;4907794;29;20251;-68
2023/10/22 12:08:42;;;;;;;6.68;1.25;;;;;;;;;;4910754;29;20052;-67
2023/10/22 12:12:23;;;;;;;6.20;2.25;;;;;;;;;;4921028;29;20055;-66
2023/10/22 12:16:04;;;;;;;7.40;1.40;;;;;;;;;;4913028;29;20087;-67
2023/10/22 12:19:44;;;;;;;4.28;1.13;;;;;;;;;;4908124;29;20043;-66
2023/10/22 12:23:25;;;;;;;3.15;1.25;;;;;;;;;;4911552;29;20041;-65
2023/10/22 12:27:05;;;;;;;7.00;1.85;;;;;;;;;;4909242;29;20063;-65
2023/10/22 12:30:46;;;;;;;12.77;1.92;;;;;;;;;;4908582;29;20055;-67
2023/10/22 12:34:27;;;;;;;4.30;1.55;;;;;;;;;;4913168;29;20730;-67
2023/10/22 12:38:06;;;;;;;5.18;1.77;;;;;;;;;;4912697;29;20062;-67
2023/10/22 12:41:48;;;;;;;9.88;1.60;;;;;;;;;;4904677;29;20056;-68
2023/10/22 12:45:30;;;;;;;4.63;1.30;;;;;;;;;;4909147;29;20139;-67
2023/10/22 12:49:10;;;;;;;6.53;1.55;;;;;;;;;;4907990;29;20072;-66
2023/10/22 12:52:50;;;;;;;3.03;1.40;;;;;;;;;;4906498;29;20080;-67
2023/10/22 12:56:33;;;;;;;4.15;1.30;;;;;;;;;;4913702;29;20047;-68
2023/10/22 13:00:14;;;;;;;7.53;1.25;;;;;;;;;;4908394;29;20064;-66
2023/10/22 13:03:54;;;;;;;5.82;1.40;;;;;;;;;;4906689;29;20071;-69
2023/10/22 13:07:36;;;;;;;3.97;1.20;;;;;;;;;;4911309;29;20048;-68
2023/10/22 13:11:17;;;;;;;3.55;1.20;;;;;;;;;;4913750;29;20052;-67
2023/10/22 13:14:58;;;;;;;5.88;1.17;;;;;;;;;;4916186;29;20044;-67
2023/10/22 13:18:40;;;;;;;7.13;1.40;;;;;;;;;;4907635;29;20315;-68
2023/10/22 13:22:19;;;;;;;5.13;1.30;;;;;;;;;;4906576;29;20051;-66
2023/10/22 13:25:59;;;;;;;2.25;1.05;;;;;;;;;;4908316;29;20193;-67
2023/10/22 13:29:41;;;;;;;5.80;1.20;;;;;;;;;;4906374;29;20135;-65
2023/10/22 13:33:22;;;;;;;6.55;1.20;;;;;;;;;;4904002;29;20048;-68
2023/10/22 13:37:03;;;;;;;5.90;1.45;;;;;;;;;;4910548;29;20111;-69
2023/10/22 13:40:45;;;;;;;4.68;1.17;;;;;;;;;;4910116;29;20084;-67
2023/10/22 13:44:25;;;;;;;8.70;1.25;;;;;;;;;;4905725;29;20062;-69
2023/10/22 13:48:05;;;;;;;3.60;1.10;;;;;;;;;;4909716;29;20451;-68
2023/10/22 13:51:46;;;;;;;4.70;1.40;;;;;;;;;;4911401;29;20154;-67
2023/10/22 13:55:26;;;;;;;4.05;1.20;;;;;;;;;;4908931;29;20082;-67
2023/10/22 13:59:10;;;;;;;4.65;1.20;;;;;;;;;;4902959;29;20055;-67
2023/10/22 14:02:50;;;;;;;4.10;1.33;;;;;;;;;;4908770;29;20905;-68
2023/10/22 14:06:30;;;;;;;7.25;2.03;;;;;;;;;;4909263;29;20048;-67
2023/10/22 14:10:11;;;;;;;5.25;1.00;;;;;;;;;;4909887;29;20044;-66
2023/10/22 14:13:52;;;;;;;4.97;1.10;;;;;;;;;;4907883;29;20048;-65
2023/10/22 14:17:31;;;;;;;7.10;1.30;;;;;;;;;;4901520;29;20060;-68
2023/10/22 14:21:14;;;;;;;4.00;1.17;;;;;;;;;;4910092;29;20044;-65
2023/10/22 14:24:12;;;;;;;5.32;1.98;;;;;;;;;;4912317;29;20064;-67
2023/10/22 14:26:40;;;;;;;5.38;1.20;;;;;;;;;;4902686;29;20144;-66
2023/10/22 14:29:45;;;;;;;3.92;1.23;;;;;;;;;;4902653;29;20481;-67
2023/10/22 14:33:26;;;;;;;4.63;1.33;;;;;;;;;;4905403;29;20040;-68
2023/10/22 14:37:07;;;;;;;2.60;0.90;;;;;;;;;;4921763;29;20367;-72
2023/10/22 14:40:47;;;;;;;3.17;1.30;;;;;;;;;;4918259;29;20509;-70
2023/10/22 14:44:27;;;;;;;4.38;0.90;;;;;;;;;;4918506;29;20052;-72
2023/10/22 14:48:08;;;;;;;3.50;1.20;;;;;;;;;;4909415;29;20408;-71
2023/10/22 14:51:48;;;;;;;4.35;1.27;;;;;;;;;;4909196;29;20040;-67
2023/10/22 14:55:28;;;;;;;4.63;1.10;;;;;;;;;;4904183;29;20130;-69
2023/10/22 14:59:09;;;;;;;4.03;1.27;;;;;;;;;;4904440;29;20044;-71
2023/10/22 15:02:49;;;;;;;6.82;1.52;;;;;;;;;;4909558;29;20415;-68
2023/10/22 15:06:29;;;;;;;6.25;0.90;;;;;;;;;;4909406;29;20058;-68
2023/10/22 15:10:10;;;;;;;4.55;1.40;;;;;;;;;;4909375;29;20131;-70
2023/10/22 15:13:50;;;;;;;5.72;1.13;;;;;;;;;;4905164;29;20160;-70
2023/10/22 15:17:30;;;;;;;3.80;1.23;;;;;;;;;;4905727;29;20064;-69
2023/10/22 15:21:19;;;;;;;4.65;1.23;;;;;;;;;;4909528;29;20044;-68
2023/10/22 15:25:00;;;;;;;3.38;1.00;;;;;;;;;;4909607;29;20807;-69
2023/10/22 15:28:42;;;;;;;6.30;1.00;;;;;;;;;;4910151;29;20067;-70
2023/10/22 15:32:22;;;;;;;7.47;1.50;;;;;;;;;;4906256;29;21292;-69
2023/10/22 15:35:38;;;;;;;2.17;0.85;;;;;;;;;;4911413;29;20384;-69
2023/10/22 15:42:07;;;;;;;6.72;1.48;;;;;;;;;;5105147;27;20589;-70
2023/10/22 15:45:49;;;;;;;5.22;1.20;;;;;;;;;;5085825;28;20120;-68
2023/10/22 15:49:29;;;;;;;4.80;1.00;;;;;;;;;;5092718;28;20115;-67
2023/10/22 15:53:10;;;;;;;3.10;1.15;;;;;;;;;;5074081;28;20029;-69
2023/10/22 15:56:51;;;;;;;3.88;1.00;;;;;;;;;;5078327;28;20534;-69
2023/10/22 16:00:30;;;;;;;6.93;1.30;;;;;;;;;;5076566;28;20086;-69
2023/10/22 16:04:10;;;;;;;4.45;1.02;;;;;;;;;;5084318;28;20047;-68
2023/10/22 16:07:53;;;;;;;4.90;1.40;;;;;;;;;;5077340;28;20380;-70
2023/10/22 16:11:34;;;;;;;3.95;1.15;;;;;;;;;;5081869;28;20056;-70
2023/10/22 16:15:18;;;;;;;4.78;1.10;;;;;;;;;;5079522;28;20108;-70
2023/10/22 16:18:57;;;;;;;4.88;1.10;;;;;;;;;;5075431;28;20127;-70
2023/10/22 16:22:38;;;;;;;4.60;1.30;;;;;;;;;;5067971;28;20047;-71
2023/10/22 16:26:22;;;;;;;3.33;1.05;;;;;;;;;;5076277;28;20047;-74
2023/10/22 16:30:03;;;;;;;3.03;0.80;;;;;;;;;;5076201;28;20140;-73
2023/10/22 16:33:43;;;;;;;5.68;1.13;;;;;;;;;;5076856;28;20048;-73
2023/10/22 16:37:25;;;;;;;3.95;1.20;;;;;;;;;;5077106;28;20058;-72
2023/10/22 16:41:06;;;;;;;5.13;1.20;;;;;;;;;;5080404;28;20828;-75
2023/10/22 16:44:46;;;;;;;4.05;1.02;;;;;;;;;;5073814;28;20504;-72
2023/10/22 16:48:27;;;;;;;3.97;1.05;;;;;;;;;;5085336;28;20056;-71
2023/10/22 16:52:08;;;;;;;5.93;1.13;;;;;;;;;;5073773;28;20036;-75
2023/10/22 16:55:50;;;;;;;5.50;1.13;;;;;;;;;;5063887;28;20146;-72
2023/10/22 16:59:30;;;;;;;6.53;1.10;;;;;;;;;;5063115;28;20063;-72
2023/10/22 17:03:10;;;;;;;6.85;1.40;;;;;;;;;;5057510;28;20479;-70
2023/10/22 17:06:51;;;;;;;5.00;1.20;;;;;;;;;;5060576;28;20041;-69
2023/10/22 17:10:31;;;;;;;3.60;1.20;;;;;;;;;;5065123;28;20122;-69
2023/10/22 17:14:11;;;;;;;2.05;1.00;;;;;;;;;;5068057;28;20511;-70
2023/10/22 17:17:53;;;;;;;5.60;1.58;;;;;;;;;;5061885;28;20036;-70
2023/10/22 17:21:35;;;;;;;3.92;0.90;;;;;;;;;;5062027;28;20322;-69
2023/10/22 17:25:15;;;;;;;6.93;1.35;;;;;;;;;;5068799;28;20048;-71
2023/10/22 17:28:55;;;;;;;4.85;1.17;;;;;;;;;;5066521;28;20056;-65
2023/10/22 17:32:37;;;;;;;11.07;1.63;;;;;;;;;;5063966;28;20435;-68
2023/10/22 17:36:17;;;;;;;5.43;1.25;;;;;;;;;;5055308;28;20377;-68
2023/10/22 17:39:58;;;;;;;3.65;1.20;;;;;;;;;;5054486;28;20056;-66
2023/10/22 17:43:38;;;;;;;6.22;1.40;;;;;;;;;;5054527;28;20053;-67
2023/10/22 17:47:19;;;;;;;4.72;1.20;;;;;;;;;;5057266;28;20062;-63
2023/10/22 17:51:00;;;;;;;7.60;1.20;;;;;;;;;;5054391;28;20468;-68
2023/10/22 17:54:44;;;;;;;4.40;1.40;;;;;;;;;;5059261;28;20075;-68
2023/10/22 17:58:22;;;;;;;5.50;1.40;;;;;;;;;;5053905;28;20605;-65
2023/10/22 18:02:02;;;;;;;6.35;1.45;;;;;;;;;;5054245;28;20059;-65
2023/10/22 18:05:42;;;;;;;9.02;1.50;;;;;;;;;;5058997;28;20109;-66
2023/10/22 18:09:23;;;;;;;6.13;1.20;;;;;;;;;;5059231;28;20076;-68
2023/10/22 18:13:03;;;;;;;8.25;1.70;;;;;;;;;;5054927;28;20055;-66
2023/10/22 18:16:44;;;;;;;3.60;1.40;;;;;;;;;;5059628;28;20052;-68
2023/10/22 18:20:25;;;;;;;8.32;1.58;;;;;;;;;;5056941;28;20045;-67
2023/10/22 18:24:05;;;;;;;12.38;1.70;;;;;;;;;;5059328;28;20169;-69
2023/10/22 18:27:47;;;;;;;8.82;1.75;;;;;;;;;;5061501;28;20056;-67
2023/10/22 18:31:27;;;;;;;5.70;1.60;;;;;;;;;;5056922;28;20102;-66
2023/10/22 18:35:08;;;;;;;9.75;1.65;;;;;;;;;;5050756;28;20592;-68
2023/10/22 18:38:50;;;;;;;5.80;1.10;;;;;;;;;;5055997;28;20067;-72